createdAt,value
2018-06-05T00:02:21.927Z,6.83
2018-06-05T00:04:50.264Z,6.63
2018-06-05T00:07:18.680Z,6.60
2018-06-05T00:09:46.987Z,6.47
2018-06-05T00:12:15.329Z,6.37
2018-06-05T00:14:43.715Z,6.77
2018-06-05T00:17:12.137Z,6.80
2018-06-05T00:19:40.433Z,6.93
2018-06-05T00:22:08.776Z,6.50
2018-06-05T00:24:37.140Z,6.87
2018-06-05T00:27:05.434Z,7.00
2018-06-05T00:29:33.758Z,6.63
2018-06-05T00:32:02.111Z,6.57
2018-06-05T00:34:30.452Z,6.67
2018-06-05T00:36:58.774Z,6.90
2018-06-05T00:39:27.137Z,6.90
2018-06-05T00:41:55.455Z,6.47
2018-06-05T00:44:23.846Z,6.87
2018-06-05T00:46:52.171Z,7.13
2018-06-05T00:49:20.550Z,6.70
2018-06-05T00:52:00.207Z,6.80
2018-06-05T00:54:28.627Z,7.43
2018-06-05T00:56:56.981Z,7.07
2018-06-05T00:59:25.319Z,7.10
2018-06-05T01:01:53.685Z,7.43
2018-06-05T01:04:22.375Z,6.77
2018-06-05T01:06:50.719Z,7.67
2018-06-05T01:09:19.046Z,7.43
2018-06-05T01:11:47.479Z,7.60
2018-06-05T01:14:15.787Z,7.13
2018-06-05T01:16:44.168Z,7.97
2018-06-05T01:19:12.513Z,7.70
2018-06-05T01:21:40.930Z,7.83
2018-06-05T01:24:09.274Z,7.90
2018-06-05T01:26:37.610Z,8.37
2018-06-05T01:29:05.900Z,7.73
2018-06-05T01:31:34.000Z,8.03
2018-06-05T01:34:02.406Z,8.00
2018-06-05T01:36:30.742Z,7.83
2018-06-05T01:38:59.138Z,8.10
2018-06-05T01:41:27.443Z,8.10
2018-06-05T01:43:55.806Z,8.03
2018-06-05T01:46:24.172Z,7.90
2018-06-05T01:48:52.544Z,8.43
2018-06-05T01:51:20.863Z,8.40
2018-06-05T01:53:49.216Z,8.10
2018-06-05T01:56:17.583Z,7.77
2018-06-05T01:58:45.966Z,8.47
2018-06-05T02:01:14.290Z,8.07
2018-06-05T02:03:42.673Z,8.13
2018-06-05T02:06:11.005Z,7.93
2018-06-05T02:08:39.354Z,8.67
2018-06-05T02:11:07.754Z,8.70
2018-06-05T02:13:36.084Z,8.73
2018-06-05T02:16:04.420Z,8.40
2018-06-05T02:18:32.806Z,8.83
2018-06-05T02:21:01.114Z,8.37
2018-06-05T02:23:29.430Z,8.63
2018-06-05T02:25:57.772Z,9.17
2018-06-05T02:28:26.104Z,8.30
2018-06-05T02:30:54.472Z,8.37
2018-06-05T02:33:22.826Z,8.70
2018-06-05T02:35:51.216Z,8.20
2018-06-05T02:38:19.560Z,8.27
2018-06-05T02:40:48.993Z,8.77
2018-06-05T02:43:17.330Z,9.30
2018-06-05T02:45:45.698Z,8.97
2018-06-05T02:48:14.071Z,9.27
2018-06-05T02:50:42.433Z,9.43
2018-06-05T02:53:10.788Z,9.10
2018-06-05T02:55:39.168Z,9.63
2018-06-05T02:58:07.525Z,9.37
2018-06-05T03:00:35.934Z,9.47
2018-06-05T03:03:04.258Z,9.50
2018-06-05T03:05:32.563Z,9.17
2018-06-05T03:08:00.919Z,9.80
2018-06-05T03:10:29.261Z,9.50
2018-06-05T03:12:57.752Z,9.23
2018-06-05T03:15:26.047Z,9.60
2018-06-05T03:17:54.391Z,9.43
2018-06-05T03:20:22.767Z,10.07
2018-06-05T03:22:51.207Z,10.20
2018-06-05T03:25:19.533Z,9.80
2018-06-05T03:27:47.905Z,9.90
2018-06-05T03:30:16.244Z,10.67
2018-06-05T03:32:44.647Z,9.63
2018-06-05T03:35:12.971Z,9.80
2018-06-05T03:37:41.377Z,10.20
2018-06-05T03:40:09.709Z,10.20
2018-06-05T03:42:38.033Z,9.73
2018-06-05T03:45:06.475Z,10.07
2018-06-05T03:47:34.809Z,10.07
2018-06-05T03:50:03.198Z,9.60
2018-06-05T03:52:31.472Z,9.13
2018-06-05T03:55:01.136Z,9.33
2018-06-05T03:57:35.077Z,9.80
2018-06-05T04:00:03.598Z,10.10
2018-06-05T04:02:31.932Z,8.93
2018-06-05T04:05:01.143Z,10.30
2018-06-05T04:07:29.572Z,9.87
2018-06-05T04:09:57.902Z,9.83
2018-06-05T04:12:26.300Z,9.83
2018-06-05T04:14:54.628Z,9.13
2018-06-05T04:17:23.029Z,10.87
2018-06-05T04:19:51.411Z,10.53
2018-06-05T04:22:19.501Z,10.07
2018-06-05T04:24:47.915Z,9.87
2018-06-05T04:27:16.319Z,9.87
2018-06-05T04:29:45.649Z,10.33
2018-06-05T04:32:14.023Z,10.47
2018-06-05T04:34:42.126Z,10.57
2018-06-05T04:37:10.467Z,10.40
2018-06-05T04:39:38.812Z,10.63
2018-06-05T04:42:07.190Z,10.47
2018-06-05T04:44:35.556Z,9.93
2018-06-05T04:47:03.917Z,10.93
2018-06-05T04:49:32.260Z,10.17
2018-06-05T04:52:00.649Z,10.60
2018-06-05T04:54:28.989Z,11.00
2018-06-05T04:56:57.386Z,10.90
2018-06-05T04:59:25.755Z,13.23
2018-06-05T05:01:54.199Z,12.53
2018-06-05T05:04:22.549Z,12.07
2018-06-05T05:06:50.917Z,12.20
2018-06-05T05:09:20.478Z,12.27
2018-06-05T05:11:49.186Z,11.23
2018-06-05T05:14:17.549Z,12.70
2018-06-05T05:16:45.960Z,13.13
2018-06-05T05:19:14.338Z,12.83
2018-06-05T05:21:42.742Z,12.37
2018-06-05T05:24:11.159Z,11.93
2018-06-05T05:26:39.569Z,12.77
2018-06-05T05:29:07.958Z,11.83
2018-06-05T05:31:36.013Z,12.53
2018-06-05T05:34:04.521Z,12.53
2018-06-05T05:36:33.587Z,11.60
2018-06-05T05:39:01.976Z,11.83
2018-06-05T05:41:30.518Z,12.07
2018-06-05T05:43:58.975Z,11.67
2018-06-05T05:46:27.384Z,10.30
2018-06-05T05:48:55.803Z,10.73
2018-06-05T05:51:24.111Z,11.23
2018-06-05T05:53:53.340Z,11.43
2018-06-05T05:56:21.671Z,10.10
2018-06-05T05:58:49.784Z,9.90
2018-06-05T06:01:18.256Z,10.33
2018-06-05T06:03:46.874Z,10.13
2018-06-05T06:06:15.264Z,10.57
2018-06-05T06:08:43.831Z,9.85
2018-06-05T06:11:12.301Z,9.67
2018-06-05T06:13:40.669Z,9.93
2018-06-05T06:16:09.045Z,9.93
2018-06-05T06:18:37.431Z,9.27
2018-06-05T06:21:05.916Z,9.60
2018-06-05T06:23:34.347Z,10.30
2018-06-05T06:26:03.048Z,10.03
2018-06-05T06:28:31.300Z,9.35
2018-06-05T06:30:59.714Z,10.70
2018-06-05T06:33:28.136Z,9.40
2018-06-05T06:35:56.548Z,10.38
2018-06-05T06:38:24.925Z,10.15
2018-06-05T06:40:53.031Z,11.05
2018-06-05T06:43:21.607Z,9.75
2018-06-05T06:45:49.995Z,10.80
2018-06-05T06:48:18.550Z,10.75
2018-06-05T06:50:46.914Z,10.32
2018-06-05T06:53:15.355Z,9.68
2018-06-05T06:55:43.690Z,9.65
2018-06-05T06:58:12.160Z,9.35
2018-06-05T07:00:40.790Z,10.08
2018-06-05T07:03:09.299Z,8.88
2018-06-05T07:05:37.672Z,10.15
2018-06-05T07:08:06.290Z,8.60
2018-06-05T07:10:34.750Z,7.80
2018-06-05T07:13:03.247Z,9.05
2018-06-05T07:15:31.576Z,8.13
2018-06-05T07:18:00.188Z,8.90
2018-06-05T07:20:28.540Z,8.18
2018-06-05T07:22:57.045Z,8.30
2018-06-05T07:25:25.820Z,8.03
2018-06-05T07:27:54.314Z,8.93
2018-06-05T07:30:22.650Z,7.97
2018-06-05T07:32:50.989Z,7.72
2018-06-05T07:35:19.514Z,7.25
2018-06-05T07:37:47.912Z,8.48
2018-06-05T07:40:16.465Z,8.30
2018-06-05T07:42:44.867Z,8.10
2018-06-05T07:45:13.307Z,8.70
2018-06-05T07:47:41.712Z,8.53
2018-06-05T07:50:10.109Z,8.18
2018-06-05T07:52:38.463Z,8.68
2018-06-05T07:55:06.818Z,8.75
2018-06-05T07:57:35.040Z,9.23
2018-06-05T08:00:03.752Z,7.53
2018-06-05T08:02:32.135Z,8.08
2018-06-05T08:05:00.514Z,9.35
2018-06-05T08:07:28.894Z,9.13
2018-06-05T08:09:57.261Z,7.83
2018-06-05T08:12:25.701Z,8.75
2018-06-05T08:14:54.212Z,9.10
2018-06-05T08:17:22.617Z,9.00
2018-06-05T08:19:50.703Z,8.30
2018-06-05T08:22:19.208Z,8.80
2018-06-05T08:24:47.629Z,7.83
2018-06-05T08:27:16.050Z,7.90
2018-06-05T08:29:44.430Z,7.78
2018-06-05T08:32:16.837Z,8.23
2018-06-05T08:34:45.202Z,7.62
2018-06-05T08:37:13.558Z,8.25
2018-06-05T08:39:41.934Z,7.78
2018-06-05T08:42:10.374Z,7.97
2018-06-05T08:44:38.712Z,8.48
2018-06-05T08:47:07.345Z,7.97
2018-06-05T08:49:35.740Z,8.18
2018-06-05T08:52:04.146Z,7.92
2018-06-05T08:54:32.559Z,8.48
2018-06-05T08:57:00.986Z,6.58
2018-06-05T08:59:30.066Z,7.70
2018-06-05T09:01:58.486Z,8.15
2018-06-05T09:04:27.074Z,7.78
2018-06-05T09:06:55.506Z,8.50
2018-06-05T09:09:25.015Z,8.65
2018-06-05T09:11:53.402Z,7.92
2018-06-05T09:14:21.820Z,8.05
2018-06-05T09:16:50.131Z,8.20
2018-06-05T09:19:18.472Z,8.10
2018-06-05T09:21:46.973Z,7.50
2018-06-05T09:24:15.379Z,8.30
2018-06-05T09:26:43.741Z,8.28
2018-06-05T09:29:12.080Z,8.33
2018-06-05T09:31:40.462Z,8.13
2018-06-05T09:34:08.830Z,7.85
2018-06-05T09:36:37.281Z,7.67
2018-06-05T09:39:08.300Z,7.53
2018-06-05T09:41:36.995Z,8.20
2018-06-05T09:44:06.274Z,7.67
2018-06-05T09:46:34.747Z,7.60
2018-06-05T09:49:03.342Z,7.33
2018-06-05T09:51:31.759Z,7.65
2018-06-05T09:54:00.171Z,7.83
2018-06-05T09:56:28.572Z,7.28
2018-06-05T09:58:56.989Z,7.28
2018-06-05T10:01:25.419Z,7.72
2018-06-05T10:03:53.858Z,7.55
2018-06-05T10:06:22.390Z,7.65
2018-06-05T10:08:50.763Z,7.53
2018-06-05T10:11:19.283Z,7.20
2018-06-05T10:13:47.701Z,6.95
2018-06-05T10:16:16.173Z,7.33
2018-06-05T10:18:44.633Z,7.92
2018-06-05T10:21:13.001Z,7.67
2018-06-05T10:23:41.579Z,7.12
2018-06-05T10:26:10.027Z,7.67
2018-06-05T10:28:38.625Z,7.55
2018-06-05T10:31:07.059Z,7.20
2018-06-05T10:33:35.449Z,6.92
2018-06-05T10:36:03.917Z,7.17
2018-06-05T10:38:32.291Z,6.80
2018-06-05T10:41:00.911Z,7.25
2018-06-05T10:43:29.294Z,6.85
2018-06-05T10:45:57.820Z,7.05
2018-06-05T10:48:26.240Z,7.03
2018-06-05T10:50:54.687Z,7.42
2018-06-05T10:53:23.065Z,7.00
2018-06-05T10:55:51.466Z,6.90
2018-06-05T10:58:19.921Z,7.05
2018-06-05T11:00:48.278Z,7.20
2018-06-05T11:03:17.440Z,6.55
2018-06-05T11:05:45.851Z,7.20
2018-06-05T11:08:14.336Z,6.75
2018-06-05T11:10:42.730Z,6.78
2018-06-05T11:13:11.108Z,6.30
2018-06-05T11:15:39.543Z,6.70
2018-06-05T11:18:07.981Z,6.53
2018-06-05T11:20:36.550Z,6.33
2018-06-05T11:23:04.990Z,6.67
2018-06-05T11:25:33.437Z,6.05
2018-06-05T11:28:01.814Z,6.50
2018-06-05T11:30:30.183Z,7.08
2018-06-05T11:32:58.670Z,6.70
2018-06-05T11:35:27.150Z,6.25
2018-06-05T11:37:55.816Z,6.40
2018-06-05T11:40:24.247Z,6.30
2018-06-05T11:42:52.852Z,7.47
2018-06-05T11:45:21.240Z,6.10
2018-06-05T11:47:49.630Z,6.28
2018-06-05T11:50:17.981Z,6.95
2018-06-05T11:52:46.339Z,6.00
2018-06-05T11:55:14.802Z,6.30
2018-06-05T11:57:42.925Z,6.10
2018-06-05T12:00:11.772Z,6.37
2018-06-05T12:02:40.235Z,7.03
2018-06-05T12:05:08.718Z,6.55
2018-06-05T12:07:37.158Z,6.10
2018-06-05T12:10:05.557Z,6.33
2018-06-05T12:12:33.963Z,6.37
2018-06-05T12:15:02.417Z,6.03
2018-06-05T12:17:30.863Z,6.62
2018-06-05T12:19:59.315Z,5.97
2018-06-05T12:22:27.727Z,6.53
2018-06-05T12:24:56.114Z,6.50
2018-06-05T12:27:24.519Z,6.83
2018-06-05T12:29:52.943Z,6.42
2018-06-05T12:32:21.396Z,7.08
2018-06-05T12:34:50.033Z,6.20
2018-06-05T12:37:18.421Z,6.37
2018-06-05T12:39:46.943Z,5.97
2018-06-05T12:42:15.010Z,6.53
2018-06-05T12:44:43.368Z,5.95
2018-06-05T12:47:11.770Z,6.00
2018-06-05T12:49:40.145Z,5.75
2018-06-05T12:52:08.732Z,6.35
2018-06-05T12:54:37.158Z,6.53
2018-06-05T12:57:06.042Z,6.28
2018-06-05T12:59:34.406Z,6.30
2018-06-05T13:02:02.820Z,5.92
2018-06-05T13:04:31.252Z,6.33
2018-06-05T13:06:59.817Z,6.53
2018-06-05T13:09:28.283Z,6.42
2018-06-05T13:11:56.811Z,5.90
2018-06-05T13:14:25.429Z,6.17
2018-06-05T13:16:53.856Z,5.95
2018-06-05T13:19:22.221Z,5.62
2018-06-05T13:21:50.660Z,6.67
2018-06-05T13:24:19.208Z,5.83
2018-06-05T13:26:47.302Z,6.30
2018-06-05T13:29:15.743Z,6.10
2018-06-05T13:31:44.304Z,5.58
2018-06-05T13:34:12.688Z,5.37
2018-06-05T13:36:41.106Z,5.58
2018-06-05T13:39:09.590Z,6.03
2018-06-05T13:41:38.071Z,5.95
2018-06-05T13:44:06.548Z,5.17
2018-06-05T13:46:34.902Z,5.65
2018-06-05T13:49:03.530Z,5.20
2018-06-05T13:54:11.682Z,5.10
2018-06-05T13:56:40.186Z,5.20
2018-06-05T13:59:08.661Z,4.85
2018-06-05T14:01:38.027Z,5.10
2018-06-05T14:04:06.456Z,5.08
2018-06-05T14:06:34.913Z,5.40
2018-06-05T14:09:03.528Z,5.35
2018-06-05T14:11:32.150Z,5.40
2018-06-05T14:14:00.714Z,5.53
2018-06-05T14:16:29.461Z,6.00
2018-06-05T14:18:57.971Z,5.35
2018-06-05T14:21:27.386Z,5.08
2018-06-05T14:23:55.795Z,4.62
2018-06-05T14:26:24.234Z,4.83
2018-06-05T14:28:52.745Z,5.30
2018-06-05T14:31:21.263Z,4.20
2018-06-05T14:33:49.637Z,3.55
2018-06-05T14:36:18.028Z,5.03
2018-06-05T14:38:46.789Z,4.62
2018-06-05T14:41:21.527Z,5.05
2018-06-05T14:43:50.016Z,4.53
2018-06-05T14:46:18.546Z,4.67
2018-06-05T14:48:48.157Z,5.03
2018-06-05T14:51:16.570Z,5.50
2018-06-05T14:53:44.947Z,4.90
2018-06-05T14:56:13.366Z,5.40
2018-06-05T14:58:41.756Z,5.50
2018-06-05T15:01:10.414Z,5.40
2018-06-05T15:03:38.880Z,5.67
2018-06-05T15:06:07.338Z,5.03
2018-06-05T15:08:35.854Z,5.58
2018-06-05T15:11:04.254Z,5.30
2018-06-05T15:13:32.726Z,5.25
2018-06-05T15:16:01.065Z,4.92
2018-06-05T15:18:29.706Z,5.17
2018-06-05T15:20:58.078Z,4.95
2018-06-05T15:23:26.702Z,5.22
2018-06-05T15:25:55.080Z,5.12
2018-06-05T15:28:23.508Z,5.72
2018-06-05T15:30:51.868Z,5.30
2018-06-05T15:33:20.269Z,5.20
2018-06-05T15:35:48.826Z,4.92
2018-06-05T15:38:17.326Z,5.50
2018-06-05T15:40:45.912Z,5.05
2018-06-05T15:43:14.697Z,4.80
2018-06-05T15:45:43.581Z,5.20
2018-06-05T15:48:11.981Z,5.40
2018-06-05T15:50:40.395Z,4.58
2018-06-05T15:53:08.834Z,5.25
2018-06-05T15:55:37.230Z,4.90
2018-06-05T15:58:05.809Z,4.97
2018-06-05T16:00:34.138Z,4.85
2018-06-05T16:03:02.605Z,5.00
2018-06-05T16:05:31.076Z,5.53
2018-06-05T16:07:59.398Z,5.12
2018-06-05T16:10:27.889Z,5.08
2018-06-05T16:12:56.261Z,4.80
2018-06-05T16:15:24.941Z,4.85
2018-06-05T16:17:53.325Z,5.67
2018-06-05T16:20:22.856Z,5.50
2018-06-05T16:22:51.650Z,5.45
2018-06-05T16:25:20.127Z,6.22
2018-06-05T16:27:48.777Z,5.83
2018-06-05T16:30:17.177Z,6.37
2018-06-05T16:32:46.041Z,5.67
2018-06-05T16:35:14.407Z,5.55
2018-06-05T16:37:42.949Z,5.60
2018-06-05T16:40:11.363Z,6.05
2018-06-05T16:42:39.881Z,6.20
2018-06-05T16:45:08.257Z,6.97
2018-06-05T16:47:36.644Z,6.47
2018-06-05T16:50:05.437Z,6.30
2018-06-05T16:52:33.898Z,6.83
2018-06-05T16:55:02.301Z,6.33
2018-06-05T16:57:30.666Z,6.95
2018-06-05T16:59:59.338Z,6.62
2018-06-05T17:02:27.788Z,6.70
2018-06-05T17:04:56.184Z,7.08
2018-06-05T17:07:24.552Z,7.28
2018-06-05T17:09:52.918Z,6.87
2018-06-05T17:12:21.364Z,7.30
2018-06-05T17:14:49.782Z,6.95
2018-06-05T17:17:18.388Z,6.58
2018-06-05T17:19:46.822Z,6.60
2018-06-05T17:22:15.202Z,6.55
2018-06-05T17:24:43.285Z,7.00
2018-06-05T17:27:11.789Z,6.78
2018-06-05T17:29:40.156Z,6.60
2018-06-05T17:32:08.500Z,6.70
2018-06-05T17:34:37.097Z,7.22
2018-06-05T17:37:05.217Z,6.83
2018-06-05T17:39:33.785Z,6.65
2018-06-05T17:42:02.183Z,6.65
2018-06-05T17:44:30.565Z,6.80
2018-06-05T17:46:58.967Z,6.55
2018-06-05T17:49:27.327Z,6.90
2018-06-05T17:51:55.927Z,6.90
2018-06-05T17:54:24.324Z,6.67
2018-06-05T17:56:52.791Z,7.00
2018-06-05T17:59:21.226Z,7.20
2018-06-05T18:01:49.671Z,7.85
2018-06-05T18:04:17.890Z,7.25
2018-06-05T18:06:46.269Z,6.80
2018-06-05T18:09:15.423Z,6.33
2018-06-05T18:11:43.945Z,7.08
2018-06-05T18:14:12.422Z,6.87
2018-06-05T18:16:40.985Z,6.90
2018-06-05T18:19:10.056Z,7.75
2018-06-05T18:21:38.583Z,6.90
2018-06-05T18:24:07.101Z,6.47
2018-06-05T18:26:35.572Z,7.00
2018-06-05T18:29:03.938Z,7.03
2018-06-05T18:31:32.372Z,7.45
2018-06-05T18:34:00.754Z,7.65
2018-06-05T18:36:29.178Z,7.50
2018-06-05T18:38:57.562Z,6.75
2018-06-05T18:41:26.084Z,8.03
2018-06-05T18:43:54.334Z,7.00
2018-06-05T18:46:22.701Z,6.62
2018-06-05T18:48:51.071Z,7.12
2018-06-05T18:51:19.492Z,7.78
2018-06-05T18:53:47.904Z,7.17
2018-06-05T18:56:16.280Z,7.25
2018-06-05T18:58:45.397Z,6.85
2018-06-05T19:01:13.893Z,7.25
2018-06-05T19:03:42.512Z,7.80
2018-06-05T19:06:11.268Z,7.40
2018-06-05T19:08:40.008Z,7.72
2018-06-05T19:11:09.167Z,7.65
2018-06-05T19:13:37.577Z,7.33
2018-06-05T19:16:06.404Z,7.35
2018-06-05T19:18:34.801Z,7.40
2018-06-05T19:21:03.335Z,7.55
2018-06-05T19:23:31.777Z,6.97
2018-06-05T19:26:00.489Z,6.40
2018-06-05T19:28:29.567Z,7.22
2018-06-05T19:30:57.762Z,6.83
2018-06-05T19:33:26.515Z,6.60
2018-06-05T19:35:56.289Z,6.47
2018-06-05T19:38:25.560Z,6.55
2018-06-05T19:40:54.041Z,7.53
2018-06-05T19:43:22.442Z,6.78
2018-06-05T19:45:50.931Z,6.92
2018-06-05T19:48:19.592Z,7.00
2018-06-05T19:50:48.018Z,6.72
2018-06-05T19:53:16.645Z,7.83
2018-06-05T19:55:44.794Z,6.80
2018-06-05T19:58:13.177Z,7.33
2018-06-05T20:00:41.687Z,6.87
2018-06-05T20:03:10.137Z,7.12
2018-06-05T20:05:38.822Z,6.47
2018-06-05T20:08:07.205Z,7.05
2018-06-05T20:10:35.723Z,6.80
2018-06-05T20:13:04.268Z,6.65
2018-06-05T20:15:32.617Z,7.15
2018-06-05T20:18:01.026Z,7.58
2018-06-05T20:20:29.408Z,7.08
2018-06-05T20:22:57.930Z,7.28
2018-06-05T20:25:26.368Z,7.03
2018-06-05T20:27:54.760Z,7.03
2018-06-05T20:30:22.850Z,6.45
2018-06-05T20:32:51.274Z,6.90
2018-06-05T20:35:19.726Z,7.22
2018-06-05T20:37:48.150Z,7.22
2018-06-05T20:40:16.596Z,7.60
2018-06-05T20:42:45.391Z,7.33
2018-06-05T20:45:13.897Z,8.28
2018-06-05T20:47:42.368Z,7.87
2018-06-05T20:50:12.280Z,7.55
2018-06-05T20:52:40.652Z,7.77
2018-06-05T20:55:09.082Z,7.70
2018-06-05T20:57:37.190Z,7.53
2018-06-05T21:00:05.833Z,7.23
2018-06-05T21:02:34.226Z,7.23
2018-06-05T21:05:02.707Z,8.13
2018-06-05T21:07:31.168Z,7.83
2018-06-05T21:10:00.132Z,7.67
2018-06-05T21:12:28.599Z,8.13
2018-06-05T21:14:57.104Z,8.27
2018-06-05T21:17:25.495Z,8.20
2018-06-05T21:19:53.880Z,8.80
2018-06-05T21:22:22.326Z,8.67
2018-06-05T21:24:51.638Z,8.80
2018-06-05T21:27:20.078Z,10.13
2018-06-05T21:29:48.556Z,8.67
2018-06-05T21:32:16.943Z,9.33
2018-06-05T21:34:45.423Z,9.87
2018-06-05T21:37:13.844Z,9.83
2018-06-05T21:39:42.204Z,10.83
2018-06-05T21:42:10.663Z,10.73
2018-06-05T21:44:39.026Z,10.00
2018-06-05T21:47:07.429Z,10.53
2018-06-05T21:49:35.809Z,10.53
2018-06-05T21:52:04.239Z,11.20
2018-06-05T21:54:32.647Z,11.13
2018-06-05T21:57:01.080Z,10.73
2018-06-05T21:59:29.497Z,11.27
2018-06-05T22:01:57.886Z,11.30
2018-06-05T22:04:26.266Z,11.70
2018-06-05T22:06:54.651Z,12.07
2018-06-05T22:09:23.015Z,12.07
2018-06-05T22:11:51.410Z,13.40
2018-06-05T22:14:19.850Z,12.33
2018-06-05T22:16:48.208Z,12.53
2018-06-05T22:19:16.629Z,12.17
2018-06-05T22:21:44.996Z,12.87
2018-06-05T22:24:13.378Z,12.47
2018-06-05T22:26:43.030Z,12.07
2018-06-05T22:29:11.411Z,12.80
2018-06-05T22:31:39.883Z,13.50
2018-06-05T22:34:08.268Z,14.07
2018-06-05T22:36:36.627Z,13.90
2018-06-05T22:39:06.759Z,13.97
2018-06-05T22:41:35.148Z,14.20
2018-06-05T22:44:03.591Z,13.87
2018-06-05T22:46:31.965Z,13.53
2018-06-05T22:49:00.335Z,14.87
2018-06-05T22:51:28.397Z,15.20
2018-06-05T22:53:56.796Z,14.00
2018-06-05T22:56:24.887Z,14.10
2018-06-05T22:58:53.915Z,14.80
2018-06-05T23:01:22.286Z,15.27
2018-06-05T23:03:50.666Z,14.57
2018-06-05T23:06:19.067Z,16.10
2018-06-05T23:08:47.417Z,15.53
2018-06-05T23:11:15.846Z,15.13
2018-06-05T23:13:44.235Z,15.53
2018-06-05T23:16:12.723Z,16.60
2018-06-05T23:18:41.086Z,14.33
2018-06-05T23:21:09.451Z,14.40
2018-06-05T23:23:37.842Z,14.60
2018-06-05T23:26:06.264Z,13.77
2018-06-05T23:28:34.997Z,15.37
2018-06-05T23:31:03.391Z,14.50
2018-06-05T23:33:31.764Z,15.47
2018-06-05T23:36:00.150Z,16.53
2018-06-05T23:38:28.527Z,15.97
2018-06-05T23:40:56.927Z,18.00
2018-06-05T23:43:25.311Z,16.70
2018-06-05T23:45:53.708Z,17.03
2018-06-05T23:48:22.076Z,17.47
2018-06-05T23:50:50.451Z,17.00
2018-06-05T23:53:18.864Z,16.43
2018-06-05T23:55:47.265Z,16.63
2018-06-05T23:58:15.746Z,17.00
